sensor_id;sensor_type;location;lat;lon;timestamp;pressure;altitude;pressure_sealevel;temperature;humidity
78679;BME280;67994;59.334;13.528;2023-04-01T00:00:00;100500.0;;;-3.6;60.5
78679;BME280;67994;59.334;13.528;2023-04-01T00:01:01;100500.0;;;-3.7;60.8
78679;BME280;67994;59.334;13.528;2023-04-01T00:02:00;100500.0;;;-3.7;60.8
78679;BME280;67994;59.334;13.528;2023-04-01T00:03:00;100500.0;;;-3.8;60.9
78679;BME280;67994;59.334;13.528;2023-04-01T00:04:00;100500.0;;;-3.6;60.8
78679;BME280;67994;59.334;13.528;2023-04-01T00:05:00;100500.0;;;-3.8;60.6
78679;BME280;67994;59.334;13.528;2023-04-01T00:06:01;100500.0;;;-3.7;60.7
78679;BME280;67994;59.334;13.528;2023-04-01T00:07:00;100500.0;;;-3.8;61.2
78679;BME280;67994;59.334;13.528;2023-04-01T00:08:00;100500.0;;;-4.0;61.8
78679;BME280;67994;59.334;13.528;2023-04-01T00:09:00;100500.0;;;-4.0;62.1
78679;BME280;67994;59.334;13.528;2023-04-01T00:10:00;100500.0;;;-3.8;61.1
78679;BME280;67994;59.334;13.528;2023-04-01T00:11:00;100500.0;;;-3.9;61.3
78679;BME280;67994;59.334;13.528;2023-04-01T00:12:00;100500.0;;;-3.9;61.2
78679;BME280;67994;59.334;13.528;2023-04-01T00:13:00;100500.0;;;-3.9;61.0
78679;BME280;67994;59.334;13.528;2023-04-01T00:14:00;100500.0;;;-3.9;60.7
78679;BME280;67994;59.334;13.528;2023-04-01T00:15:01;100500.0;;;-3.9;60.8
78679;BME280;67994;59.334;13.528;2023-04-01T00:16:00;100500.0;;;-3.9;61.2
78679;BME280;67994;59.334;13.528;2023-04-01T00:17:00;100500.0;;;-3.8;60.6
78679;BME280;67994;59.334;13.528;2023-04-01T00:18:00;100500.0;;;-3.7;60.2
78679;BME280;67994;59.334;13.528;2023-04-01T00:19:00;100500.0;;;-3.9;60.7
78679;BME280;67994;59.334;13.528;2023-04-01T00:20:00;100500.0;;;-3.9;61.2
78679;BME280;67994;59.334;13.528;2023-04-01T00:21:00;100500.0;;;-3.8;61.8
78679;BME280;67994;59.334;13.528;2023-04-01T00:22:00;100500.0;;;-3.8;60.3
78679;BME280;67994;59.334;13.528;2023-04-01T00:23:01;100500.0;;;-3.7;60.0
78679;BME280;67994;59.334;13.528;2023-04-01T00:24:00;100500.0;;;-3.7;60.0
78679;BME280;67994;59.334;13.528;2023-04-01T00:25:00;100500.0;;;-3.7;60.0
78679;BME280;67994;59.334;13.528;2023-04-01T00:26:00;100500.0;;;-3.8;60.5
78679;BME280;67994;59.334;13.528;2023-04-01T00:27:00;100500.0;;;-3.7;59.9
78679;BME280;67994;59.334;13.528;2023-04-01T00:28:00;100500.0;;;-3.7;59.9
78679;BME280;67994;59.334;13.528;2023-04-01T00:29:00;100500.0;;;-3.8;60.7
78679;BME280;67994;59.334;13.528;2023-04-01T00:30:00;100500.0;;;-3.9;61.2
78679;BME280;67994;59.334;13.528;2023-04-01T00:31:04;100500.0;;;-3.9;61.8
78679;BME280;67994;59.334;13.528;2023-04-01T00:32:00;100500.0;;;-3.9;61.9
78679;BME280;67994;59.334;13.528;2023-04-01T00:33:00;100500.0;;;-4.0;62.1
78679;BME280;67994;59.334;13.528;2023-04-01T00:34:00;100500.0;;;-4.0;61.6
78679;BME280;67994;59.334;13.528;2023-04-01T00:35:00;100500.0;;;-4.0;61.5
78679;BME280;67994;59.334;13.528;2023-04-01T00:36:05;100500.0;;;-4.1;62.0
78679;BME280;67994;59.334;13.528;2023-04-01T00:37:00;100500.0;;;-4.2;62.0
78679;BME280;67994;59.334;13.528;2023-04-01T00:38:00;100500.0;;;-4.3;62.4
78679;BME280;67994;59.334;13.528;2023-04-01T00:39:00;100500.0;;;-4.4;62.6
78679;BME280;67994;59.334;13.528;2023-04-01T00:40:01;100500.0;;;-4.4;62.8
78679;BME280;67994;59.334;13.528;2023-04-01T00:41:00;100500.0;;;-4.5;63.3
78679;BME280;67994;59.334;13.528;2023-04-01T00:42:01;100500.0;;;-4.2;63.1
78679;BME280;67994;59.334;13.528;2023-04-01T00:43:00;100500.0;;;-4.4;64.0
78679;BME280;67994;59.334;13.528;2023-04-01T00:44:14;100500.0;;;-4.3;63.4
78679;BME280;67994;59.334;13.528;2023-04-01T00:46:00;100500.0;;;-3.9;64.1
78679;BME280;67994;59.334;13.528;2023-04-01T00:47:00;100500.0;;;-3.9;63.6
78679;BME280;67994;59.334;13.528;2023-04-01T00:48:04;100500.0;;;-4.1;63.1
78679;BME280;67994;59.334;13.528;2023-04-01T00:49:00;100500.0;;;-4.2;63.2
78679;BME280;67994;59.334;13.528;2023-04-01T00:50:00;100500.0;;;-4.3;63.4
78679;BME280;67994;59.334;13.528;2023-04-01T00:51:03;100500.0;;;-4.3;63.8
78679;BME280;67994;59.334;13.528;2023-04-01T00:52:02;100500.0;;;-4.3;63.5
78679;BME280;67994;59.334;13.528;2023-04-01T00:53:01;100500.0;;;-4.5;64.1
78679;BME280;67994;59.334;13.528;2023-04-01T00:54:00;100500.0;;;-4.5;64.4
78679;BME280;67994;59.334;13.528;2023-04-01T00:55:02;100500.0;;;-4.5;64.4
78679;BME280;67994;59.334;13.528;2023-04-01T00:56:04;100500.0;;;-4.4;64.2
78679;BME280;67994;59.334;13.528;2023-04-01T00:57:03;100500.0;;;-4.5;64.7
78679;BME280;67994;59.334;13.528;2023-04-01T00:58:02;100500.0;;;-4.3;64.6
78679;BME280;67994;59.334;13.528;2023-04-01T00:59:02;100500.0;;;-4.2;64.3
78679;BME280;67994;59.334;13.528;2023-04-01T01:00:00;100500.0;;;-4.4;64.2
78679;BME280;67994;59.334;13.528;2023-04-01T01:01:00;100500.0;;;-4.4;64.3
78679;BME280;67994;59.334;13.528;2023-04-01T01:02:01;100500.0;;;-4.4;64.5
78679;BME280;67994;59.334;13.528;2023-04-01T01:03:00;100500.0;;;-4.6;64.6
78679;BME280;67994;59.334;13.528;2023-04-01T01:04:00;100500.0;;;-4.5;64.2
78679;BME280;67994;59.334;13.528;2023-04-01T01:05:00;100500.0;;;-4.5;63.7
78679;BME280;67994;59.334;13.528;2023-04-01T01:06:08;100500.0;;;-4.5;63.5
78679;BME280;67994;59.334;13.528;2023-04-01T01:07:10;100500.0;;;-4.6;63.8
78679;BME280;67994;59.334;13.528;2023-04-01T01:08:05;100500.0;;;-4.4;62.8
78679;BME280;67994;59.334;13.528;2023-04-01T01:09:10;100500.0;;;-4.5;63.1
78679;BME280;67994;59.334;13.528;2023-04-01T01:10:02;100500.0;;;-4.4;62.6
78679;BME280;67994;59.334;13.528;2023-04-01T01:11:00;100500.0;;;-4.4;62.7
78679;BME280;67994;59.334;13.528;2023-04-01T01:12:06;100500.0;;;-4.4;62.5
78679;BME280;67994;59.334;13.528;2023-04-01T01:13:05;100500.0;;;-4.4;62.4
78679;BME280;67994;59.334;13.528;2023-04-01T01:14:06;100500.0;;;-4.5;62.5
78679;BME280;67994;59.334;13.528;2023-04-01T01:15:05;100500.0;;;-4.5;62.8
78679;BME280;67994;59.334;13.528;2023-04-01T01:16:04;100500.0;;;-4.4;62.7
78679;BME280;67994;59.334;13.528;2023-04-01T01:17:07;100500.0;;;-4.2;61.7
78679;BME280;67994;59.334;13.528;2023-04-01T01:18:03;100500.0;;;-4.4;62.1
78679;BME280;67994;59.334;13.528;2023-04-01T01:19:08;100500.0;;;-4.5;62.4
78679;BME280;67994;59.334;13.528;2023-04-01T01:20:20;100500.0;;;-4.4;62.0
78679;BME280;67994;59.334;13.528;2023-04-01T01:21:20;100500.0;;;-4.3;61.8
78679;BME280;67994;59.334;13.528;2023-04-01T01:22:09;100500.0;;;-4.2;61.2
78679;BME280;67994;59.334;13.528;2023-04-01T01:24:13;100500.0;;;-4.3;61.3
78679;BME280;67994;59.334;13.528;2023-04-01T01:25:13;100500.0;;;-4.5;62.3
78679;BME280;67994;59.334;13.528;2023-04-01T01:26:13;100500.0;;;-4.5;62.6
78679;BME280;67994;59.334;13.528;2023-04-01T01:27:03;100500.0;;;-4.3;62.1
78679;BME280;67994;59.334;13.528;2023-04-01T01:28:15;100500.0;;;-4.5;62.0
78679;BME280;67994;59.334;13.528;2023-04-01T01:29:06;100500.0;;;-4.5;62.2
78679;BME280;67994;59.334;13.528;2023-04-01T01:30:11;100500.0;;;-4.6;62.1
78679;BME280;67994;59.334;13.528;2023-04-01T01:31:03;100500.0;;;-4.4;61.6
78679;BME280;67994;59.334;13.528;2023-04-01T01:32:05;100500.0;;;-4.6;62.3
78679;BME280;67994;59.334;13.528;2023-04-01T01:33:10;100500.0;;;-4.6;62.5
78679;BME280;67994;59.334;13.528;2023-04-01T01:34:09;100500.0;;;-4.5;62.3
78679;BME280;67994;59.334;13.528;2023-04-01T01:35:14;100500.0;;;-4.4;61.8
78679;BME280;67994;59.334;13.528;2023-04-01T01:36:02;100500.0;;;-4.6;62.1
78679;BME280;67994;59.334;13.528;2023-04-01T01:37:02;100500.0;;;-4.4;61.6
78679;BME280;67994;59.334;13.528;2023-04-01T01:38:03;100500.0;;;-4.4;61.2
78679;BME280;67994;59.334;13.528;2023-04-01T01:39:00;100500.0;;;-4.4;61.2
78679;BME280;67994;59.334;13.528;2023-04-01T01:40:05;100500.0;;;-4.4;61.4
78679;BME280;67994;59.334;13.528;2023-04-01T01:41:01;100500.0;;;-4.4;61.4
78679;BME280;67994;59.334;13.528;2023-04-01T01:42:04;100500.0;;;-4.3;60.9
78679;BME280;67994;59.334;13.528;2023-04-01T01:43:03;100500.0;;;-4.5;61.4
78679;BME280;67994;59.334;13.528;2023-04-01T01:44:02;100500.0;;;-4.3;61.1
78679;BME280;67994;59.334;13.528;2023-04-01T01:45:01;100500.0;;;-4.3;61.1
78679;BME280;67994;59.334;13.528;2023-04-01T01:46:03;100500.0;;;-4.5;61.7
78679;BME280;67994;59.334;13.528;2023-04-01T01:47:00;100500.0;;;-4.5;61.7
78679;BME280;67994;59.334;13.528;2023-04-01T01:48:02;100500.0;;;-4.5;62.1
78679;BME280;67994;59.334;13.528;2023-04-01T01:49:01;100500.0;;;-4.6;62.4
78679;BME280;67994;59.334;13.528;2023-04-01T01:50:00;100500.0;;;-4.7;62.8
78679;BME280;67994;59.334;13.528;2023-04-01T01:51:00;100500.0;;;-4.6;62.9
78679;BME280;67994;59.334;13.528;2023-04-01T01:52:00;100500.0;;;-4.8;63.1
78679;BME280;67994;59.334;13.528;2023-04-01T01:53:02;100500.0;;;-4.7;63.2
78679;BME280;67994;59.334;13.528;2023-04-01T01:54:00;100500.0;;;-4.7;63.2
78679;BME280;67994;59.334;13.528;2023-04-01T01:55:00;100500.0;;;-4.8;63.3
78679;BME280;67994;59.334;13.528;2023-04-01T01:56:00;100500.0;;;-4.7;63.4
78679;BME280;67994;59.334;13.528;2023-04-01T01:57:04;100500.0;;;-4.7;63.5
78679;BME280;67994;59.334;13.528;2023-04-01T01:58:02;100500.0;;;-4.7;62.9
78679;BME280;67994;59.334;13.528;2023-04-01T01:59:03;100500.0;;;-4.8;63.1
78679;BME280;67994;59.334;13.528;2023-04-01T02:00:03;100500.0;;;-4.9;63.1
78679;BME280;67994;59.334;13.528;2023-04-01T02:01:03;100500.0;;;-4.9;63.1
78679;BME280;67994;59.334;13.528;2023-04-01T02:02:00;100500.0;;;-4.8;63.1
78679;BME280;67994;59.334;13.528;2023-04-01T02:03:00;100500.0;;;-4.8;63.0
78679;BME280;67994;59.334;13.528;2023-04-01T02:04:00;100500.0;;;-4.7;63.0
78679;BME280;67994;59.334;13.528;2023-04-01T02:05:01;100500.0;;;-4.8;62.8
78679;BME280;67994;59.334;13.528;2023-04-01T02:06:01;100500.0;;;-4.8;62.8
78679;BME280;67994;59.334;13.528;2023-04-01T02:07:02;100500.0;;;-4.8;62.8
78679;BME280;67994;59.334;13.528;2023-04-01T02:08:04;100500.0;;;-4.9;62.7
78679;BME280;67994;59.334;13.528;2023-04-01T02:09:02;100500.0;;;-4.9;62.8
78679;BME280;67994;59.334;13.528;2023-04-01T02:10:00;100500.0;;;-4.9;62.7
78679;BME280;67994;59.334;13.528;2023-04-01T02:11:02;100500.0;;;-4.9;62.8
78679;BME280;67994;59.334;13.528;2023-04-01T02:12:03;100500.0;;;-4.9;62.9
78679;BME280;67994;59.334;13.528;2023-04-01T02:13:03;100500.0;;;-5.0;63.1
78679;BME280;67994;59.334;13.528;2023-04-01T02:14:04;100500.0;;;-4.9;63.4
78679;BME280;67994;59.334;13.528;2023-04-01T02:15:04;100500.0;;;-4.8;63.4
78679;BME280;67994;59.334;13.528;2023-04-01T02:16:06;100500.0;;;-4.9;63.0
78679;BME280;67994;59.334;13.528;2023-04-01T02:17:04;100500.0;;;-5.1;63.3
78679;BME280;67994;59.334;13.528;2023-04-01T02:18:01;100500.0;;;-5.1;63.3
78679;BME280;67994;59.334;13.528;2023-04-01T02:19:01;100500.0;;;-5.0;63.0
78679;BME280;67994;59.334;13.528;2023-04-01T02:20:02;100500.0;;;-4.9;63.8
78679;BME280;67994;59.334;13.528;2023-04-01T02:21:00;100500.0;;;-4.9;64.2
78679;BME280;67994;59.334;13.528;2023-04-01T02:22:03;100500.0;;;-5.3;65.2
78679;BME280;67994;59.334;13.528;2023-04-01T02:23:01;100500.0;;;-5.1;64.2
78679;BME280;67994;59.334;13.528;2023-04-01T02:24:02;100500.0;;;-5.1;64.2
78679;BME280;67994;59.334;13.528;2023-04-01T02:25:04;100500.0;;;-5.2;64.0
78679;BME280;67994;59.334;13.528;2023-04-01T02:26:00;100500.0;;;-5.1;64.1
78679;BME280;67994;59.334;13.528;2023-04-01T02:27:00;100500.0;;;-5.1;64.1
78679;BME280;67994;59.334;13.528;2023-04-01T02:28:00;100500.0;;;-5.1;64.2
78679;BME280;67994;59.334;13.528;2023-04-01T02:29:01;100500.0;;;-5.1;64.0
78679;BME280;67994;59.334;13.528;2023-04-01T02:30:00;100500.0;;;-5.2;64.2
78679;BME280;67994;59.334;13.528;2023-04-01T02:31:01;100500.0;;;-5.1;64.6
78679;BME280;67994;59.334;13.528;2023-04-01T02:32:00;100500.0;;;-5.1;64.6
78679;BME280;67994;59.334;13.528;2023-04-01T02:33:01;100500.0;;;-5.1;64.4
78679;BME280;67994;59.334;13.528;2023-04-01T02:34:02;100500.0;;;-5.1;64.3
78679;BME280;67994;59.334;13.528;2023-04-01T02:35:00;100500.0;;;-5.2;65.3
78679;BME280;67994;59.334;13.528;2023-04-01T02:36:00;100500.0;;;-5.2;65.4
78679;BME280;67994;59.334;13.528;2023-04-01T02:37:00;100500.0;;;-5.3;65.6
78679;BME280;67994;59.334;13.528;2023-04-01T02:38:00;100500.0;;;-5.3;65.6
78679;BME280;67994;59.334;13.528;2023-04-01T02:39:00;100500.0;;;-5.4;65.7
78679;BME280;67994;59.334;13.528;2023-04-01T02:40:00;100500.0;;;-5.4;65.8
78679;BME280;67994;59.334;13.528;2023-04-01T02:41:00;100500.0;;;-5.4;65.4
78679;BME280;67994;59.334;13.528;2023-04-01T02:42:00;100500.0;;;-5.5;65.4
78679;BME280;67994;59.334;13.528;2023-04-01T02:43:00;100500.0;;;-5.6;65.4
78679;BME280;67994;59.334;13.528;2023-04-01T02:44:00;100500.0;;;-5.7;65.7
78679;BME280;67994;59.334;13.528;2023-04-01T02:45:00;100500.0;;;-5.6;66.4
78679;BME280;67994;59.334;13.528;2023-04-01T02:46:00;100500.0;;;-5.4;65.3
78679;BME280;67994;59.334;13.528;2023-04-01T02:47:00;100500.0;;;-5.2;64.7
78679;BME280;67994;59.334;13.528;2023-04-01T02:48:00;100600.0;;;-5.3;65.1
78679;BME280;67994;59.334;13.528;2023-04-01T02:49:00;100600.0;;;-5.3;65.0
78679;BME280;67994;59.334;13.528;2023-04-01T02:50:00;100500.0;;;-5.6;65.7
78679;BME280;67994;59.334;13.528;2023-04-01T02:51:00;100500.0;;;-5.7;66.5
78679;BME280;67994;59.334;13.528;2023-04-01T02:52:00;100600.0;;;-5.7;66.6
78679;BME280;67994;59.334;13.528;2023-04-01T02:53:00;100600.0;;;-5.7;66.4
78679;BME280;67994;59.334;13.528;2023-04-01T02:54:00;100600.0;;;-5.6;66.4
78679;BME280;67994;59.334;13.528;2023-04-01T02:55:00;100600.0;;;-5.8;66.7
78679;BME280;67994;59.334;13.528;2023-04-01T02:56:00;100600.0;;;-5.5;66.1
78679;BME280;67994;59.334;13.528;2023-04-01T02:57:00;100600.0;;;-5.7;66.1
78679;BME280;67994;59.334;13.528;2023-04-01T02:58:00;100600.0;;;-5.7;66.7
78679;BME280;67994;59.334;13.528;2023-04-01T02:59:00;100600.0;;;-5.5;66.0
78679;BME280;67994;59.334;13.528;2023-04-01T03:00:00;100600.0;;;-5.6;66.0
78679;BME280;67994;59.334;13.528;2023-04-01T03:01:00;100600.0;;;-5.7;66.1
78679;BME280;67994;59.334;13.528;2023-04-01T03:02:00;100600.0;;;-5.5;66.5
78679;BME280;67994;59.334;13.528;2023-04-01T03:03:00;100600.0;;;-5.6;66.3
78679;BME280;67994;59.334;13.528;2023-04-01T03:04:00;100600.0;;;-5.4;66.3
78679;BME280;67994;59.334;13.528;2023-04-01T03:05:00;100600.0;;;-5.5;66.1
78679;BME280;67994;59.334;13.528;2023-04-01T03:06:05;100600.0;;;-5.4;66.0
78679;BME280;67994;59.334;13.528;2023-04-01T03:07:00;100600.0;;;-5.3;65.4
78679;BME280;67994;59.334;13.528;2023-04-01T03:08:00;100600.0;;;-5.3;65.4
78679;BME280;67994;59.334;13.528;2023-04-01T03:09:00;100600.0;;;-5.4;65.6
78679;BME280;67994;59.334;13.528;2023-04-01T03:10:00;100600.0;;;-5.1;64.9
78679;BME280;67994;59.334;13.528;2023-04-01T03:11:00;100600.0;;;-5.1;65.0
78679;BME280;67994;59.334;13.528;2023-04-01T03:12:00;100600.0;;;-5.1;65.3
78679;BME280;67994;59.334;13.528;2023-04-01T03:13:00;100600.0;;;-5.1;65.3
78679;BME280;67994;59.334;13.528;2023-04-01T03:14:00;100600.0;;;-5.2;64.7
78679;BME280;67994;59.334;13.528;2023-04-01T03:15:00;100600.0;;;-5.0;64.2
78679;BME280;67994;59.334;13.528;2023-04-01T03:16:00;100600.0;;;-5.0;64.1
78679;BME280;67994;59.334;13.528;2023-04-01T03:17:00;100600.0;;;-5.0;64.5
78679;BME280;67994;59.334;13.528;2023-04-01T03:18:00;100600.0;;;-5.1;64.1
78679;BME280;67994;59.334;13.528;2023-04-01T03:19:00;100600.0;;;-5.2;64.1
78679;BME280;67994;59.334;13.528;2023-04-01T03:20:00;100600.0;;;-5.2;64.3
78679;BME280;67994;59.334;13.528;2023-04-01T03:21:14;100600.0;;;-5.0;64.2
78679;BME280;67994;59.334;13.528;2023-04-01T03:22:00;100600.0;;;-5.0;63.8
78679;BME280;67994;59.334;13.528;2023-04-01T03:23:00;100600.0;;;-5.0;63.5
78679;BME280;67994;59.334;13.528;2023-04-01T03:24:00;100600.0;;;-4.9;63.2
78679;BME280;67994;59.334;13.528;2023-04-01T03:25:00;100600.0;;;-4.8;63.2
78679;BME280;67994;59.334;13.528;2023-04-01T03:26:00;100600.0;;;-4.9;63.0
78679;BME280;67994;59.334;13.528;2023-04-01T03:27:00;100600.0;;;-4.9;63.1
78679;BME280;67994;59.334;13.528;2023-04-01T03:28:00;100600.0;;;-5.0;63.3
78679;BME280;67994;59.334;13.528;2023-04-01T03:29:00;100600.0;;;-5.0;63.6
78679;BME280;67994;59.334;13.528;2023-04-01T03:30:00;100600.0;;;-4.9;63.1
78679;BME280;67994;59.334;13.528;2023-04-01T03:31:00;100600.0;;;-5.2;63.8
78679;BME280;67994;59.334;13.528;2023-04-01T03:32:00;100600.0;;;-5.2;64.0
78679;BME280;67994;59.334;13.528;2023-04-01T03:33:00;100600.0;;;-5.2;64.4
78679;BME280;67994;59.334;13.528;2023-04-01T03:34:00;100600.0;;;-5.3;64.4
78679;BME280;67994;59.334;13.528;2023-04-01T03:35:00;100600.0;;;-5.3;64.3
78679;BME280;67994;59.334;13.528;2023-04-01T03:36:00;100600.0;;;-5.2;64.0
78679;BME280;67994;59.334;13.528;2023-04-01T03:37:00;100600.0;;;-5.1;64.7
78679;BME280;67994;59.334;13.528;2023-04-01T03:38:00;100600.0;;;-5.2;65.7
78679;BME280;67994;59.334;13.528;2023-04-01T03:39:00;100600.0;;;-5.0;66.1
78679;BME280;67994;59.334;13.528;2023-04-01T03:40:00;100600.0;;;-5.0;65.3
78679;BME280;67994;59.334;13.528;2023-04-01T03:41:00;100600.0;;;-4.9;65.9
78679;BME280;67994;59.334;13.528;2023-04-01T03:42:00;100600.0;;;-4.9;65.6
78679;BME280;67994;59.334;13.528;2023-04-01T03:43:00;100600.0;;;-5.1;65.4
78679;BME280;67994;59.334;13.528;2023-04-01T03:44:00;100600.0;;;-5.0;65.3
78679;BME280;67994;59.334;13.528;2023-04-01T03:45:00;100600.0;;;-4.9;65.4
78679;BME280;67994;59.334;13.528;2023-04-01T03:46:00;100600.0;;;-5.2;64.8
78679;BME280;67994;59.334;13.528;2023-04-01T03:47:00;100600.0;;;-5.1;65.5
78679;BME280;67994;59.334;13.528;2023-04-01T03:48:00;100600.0;;;-5.1;65.0
78679;BME280;67994;59.334;13.528;2023-04-01T03:49:00;100600.0;;;-5.2;65.3
78679;BME280;67994;59.334;13.528;2023-04-01T03:50:00;100600.0;;;-5.2;65.3
78679;BME280;67994;59.334;13.528;2023-04-01T03:51:00;100600.0;;;-5.3;65.2
78679;BME280;67994;59.334;13.528;2023-04-01T03:52:00;100600.0;;;-5.2;65.7
78679;BME280;67994;59.334;13.528;2023-04-01T03:53:00;100600.0;;;-5.2;65.5
78679;BME280;67994;59.334;13.528;2023-04-01T03:54:00;100600.0;;;-5.2;65.3
78679;BME280;67994;59.334;13.528;2023-04-01T03:55:00;100600.0;;;-5.3;65.0
78679;BME280;67994;59.334;13.528;2023-04-01T03:56:03;100600.0;;;-5.4;64.9
78679;BME280;67994;59.334;13.528;2023-04-01T03:57:00;100600.0;;;-5.2;64.2
78679;BME280;67994;59.334;13.528;2023-04-01T03:58:00;100600.0;;;-5.4;63.9
78679;BME280;67994;59.334;13.528;2023-04-01T03:59:02;100600.0;;;-5.4;65.4
78679;BME280;67994;59.334;13.528;2023-04-01T04:00:00;100600.0;;;-5.3;65.1
78679;BME280;67994;59.334;13.528;2023-04-01T04:01:00;100600.0;;;-5.4;64.4
78679;BME280;67994;59.334;13.528;2023-04-01T04:02:00;100600.0;;;-5.2;64.9
78679;BME280;67994;59.334;13.528;2023-04-01T04:03:00;100600.0;;;-5.0;65.1
78679;BME280;67994;59.334;13.528;2023-04-01T04:04:00;100600.0;;;-5.2;64.3
78679;BME280;67994;59.334;13.528;2023-04-01T04:05:00;100600.0;;;-5.2;64.8
78679;BME280;67994;59.334;13.528;2023-04-01T04:06:00;100600.0;;;-5.1;65.5
78679;BME280;67994;59.334;13.528;2023-04-01T04:07:00;100600.0;;;-5.3;65.4
78679;BME280;67994;59.334;13.528;2023-04-01T04:08:00;100600.0;;;-5.3;65.9
78679;BME280;67994;59.334;13.528;2023-04-01T04:09:00;100600.0;;;-5.1;65.5
78679;BME280;67994;59.334;13.528;2023-04-01T04:10:00;100600.0;;;-5.4;65.0
78679;BME280;67994;59.334;13.528;2023-04-01T04:11:00;100600.0;;;-5.4;65.1
78679;BME280;67994;59.334;13.528;2023-04-01T04:12:00;100600.0;;;-5.2;65.1
78679;BME280;67994;59.334;13.528;2023-04-01T04:13:00;100600.0;;;-5.3;65.3
78679;BME280;67994;59.334;13.528;2023-04-01T04:14:00;100600.0;;;-5.3;65.1
78679;BME280;67994;59.334;13.528;2023-04-01T04:15:00;100600.0;;;-5.3;65.2
78679;BME280;67994;59.334;13.528;2023-04-01T04:16:00;100600.0;;;-5.4;65.4
78679;BME280;67994;59.334;13.528;2023-04-01T04:17:00;100600.0;;;-5.4;65.4
78679;BME280;67994;59.334;13.528;2023-04-01T04:18:00;100600.0;;;-5.1;66.1
78679;BME280;67994;59.334;13.528;2023-04-01T04:19:01;100600.0;;;-5.3;64.9
78679;BME280;67994;59.334;13.528;2023-04-01T04:20:00;100600.0;;;-5.3;65.4
78679;BME280;67994;59.334;13.528;2023-04-01T04:21:00;100600.0;;;-5.4;64.6
78679;BME280;67994;59.334;13.528;2023-04-01T04:22:01;100600.0;;;-5.3;65.2
78679;BME280;67994;59.334;13.528;2023-04-01T04:23:00;100600.0;;;-5.3;64.9
78679;BME280;67994;59.334;13.528;2023-04-01T04:24:00;100600.0;;;-5.4;64.7
78679;BME280;67994;59.334;13.528;2023-04-01T04:25:00;100600.0;;;-5.4;64.8
78679;BME280;67994;59.334;13.528;2023-04-01T04:26:02;100600.0;;;-5.4;64.4
78679;BME280;67994;59.334;13.528;2023-04-01T04:27:00;100600.0;;;-5.5;64.8
78679;BME280;67994;59.334;13.528;2023-04-01T04:28:00;100600.0;;;-5.5;64.8
78679;BME280;67994;59.334;13.528;2023-04-01T04:29:00;100600.0;;;-5.6;64.5
78679;BME280;67994;59.334;13.528;2023-04-01T04:30:00;100600.0;;;-5.6;65.1
78679;BME280;67994;59.334;13.528;2023-04-01T04:31:00;100600.0;;;-5.5;65.1
78679;BME280;67994;59.334;13.528;2023-04-01T04:32:00;100600.0;;;-5.5;65.4
78679;BME280;67994;59.334;13.528;2023-04-01T04:33:00;100600.0;;;-5.3;65.6
78679;BME280;67994;59.334;13.528;2023-04-01T04:34:00;100600.0;;;-5.4;64.8
78679;BME280;67994;59.334;13.528;2023-04-01T04:35:00;100600.0;;;-5.5;64.8
78679;BME280;67994;59.334;13.528;2023-04-01T04:36:00;100600.0;;;-5.5;64.9
78679;BME280;67994;59.334;13.528;2023-04-01T04:37:00;100600.0;;;-5.6;64.7
78679;BME280;67994;59.334;13.528;2023-04-01T04:38:00;100600.0;;;-5.8;65.1
78679;BME280;67994;59.334;13.528;2023-04-01T04:39:00;100600.0;;;-5.7;65.2
78679;BME280;67994;59.334;13.528;2023-04-01T04:40:00;100600.0;;;-5.7;65.0
78679;BME280;67994;59.334;13.528;2023-04-01T04:41:00;100600.0;;;-5.7;65.8
78679;BME280;67994;59.334;13.528;2023-04-01T04:42:00;100600.0;;;-5.8;65.4
78679;BME280;67994;59.334;13.528;2023-04-01T04:43:00;100600.0;;;-5.6;65.4
78679;BME280;67994;59.334;13.528;2023-04-01T04:44:00;100600.0;;;-5.6;65.3
78679;BME280;67994;59.334;13.528;2023-04-01T04:45:00;100600.0;;;-5.6;65.0
78679;BME280;67994;59.334;13.528;2023-04-01T04:46:04;100600.0;;;-5.7;64.8
78679;BME280;67994;59.334;13.528;2023-04-01T04:47:01;100600.0;;;-5.9;65.1
78679;BME280;67994;59.334;13.528;2023-04-01T04:48:00;100600.0;;;-5.6;66.1
78679;BME280;67994;59.334;13.528;2023-04-01T04:49:00;100600.0;;;-5.6;66.0
78679;BME280;67994;59.334;13.528;2023-04-01T04:50:00;100600.0;;;-5.6;66.0
78679;BME280;67994;59.334;13.528;2023-04-01T04:51:00;100600.0;;;-5.5;65.7
78679;BME280;67994;59.334;13.528;2023-04-01T04:52:00;100600.0;;;-5.5;65.4
78679;BME280;67994;59.334;13.528;2023-04-01T04:53:00;100600.0;;;-5.3;65.6
78679;BME280;67994;59.334;13.528;2023-04-01T04:54:00;100600.0;;;-5.7;65.6
78679;BME280;67994;59.334;13.528;2023-04-01T04:55:00;100600.0;;;-5.5;65.4
78679;BME280;67994;59.334;13.528;2023-04-01T04:56:00;100700.0;;;-5.4;65.5
78679;BME280;67994;59.334;13.528;2023-04-01T04:57:00;100700.0;;;-5.5;65.3
78679;BME280;67994;59.334;13.528;2023-04-01T04:58:00;100700.0;;;-5.7;65.7
78679;BME280;67994;59.334;13.528;2023-04-01T04:59:00;100700.0;;;-5.6;66.3
78679;BME280;67994;59.334;13.528;2023-04-01T05:00:00;100700.0;;;-5.6;65.7
78679;BME280;67994;59.334;13.528;2023-04-01T05:01:05;100700.0;;;-5.4;65.4
78679;BME280;67994;59.334;13.528;2023-04-01T05:02:00;100700.0;;;-5.4;65.1
78679;BME280;67994;59.334;13.528;2023-04-01T05:03:00;100700.0;;;-5.5;64.9
78679;BME280;67994;59.334;13.528;2023-04-01T05:04:00;100700.0;;;-5.4;65.0
78679;BME280;67994;59.334;13.528;2023-04-01T05:05:00;100700.0;;;-5.3;64.2
78679;BME280;67994;59.334;13.528;2023-04-01T05:06:00;100700.0;;;-5.1;65.4
78679;BME280;67994;59.334;13.528;2023-04-01T05:07:00;100700.0;;;-5.2;65.2
78679;BME280;67994;59.334;13.528;2023-04-01T05:08:00;100700.0;;;-5.2;64.8
78679;BME280;67994;59.334;13.528;2023-04-01T05:09:00;100700.0;;;-5.1;64.3
78679;BME280;67994;59.334;13.528;2023-04-01T05:10:00;100700.0;;;-5.1;64.0
78679;BME280;67994;59.334;13.528;2023-04-01T05:11:01;100700.0;;;-5.1;63.8
78679;BME280;67994;59.334;13.528;2023-04-01T05:12:00;100700.0;;;-5.0;64.1
78679;BME280;67994;59.334;13.528;2023-04-01T05:13:00;100700.0;;;-5.1;64.5
78679;BME280;67994;59.334;13.528;2023-04-01T05:14:00;100700.0;;;-5.0;64.6
78679;BME280;67994;59.334;13.528;2023-04-01T05:15:00;100700.0;;;-5.0;64.5
78679;BME280;67994;59.334;13.528;2023-04-01T05:16:00;100700.0;;;-4.9;64.4
78679;BME280;67994;59.334;13.528;2023-04-01T05:17:00;100700.0;;;-5.0;64.7
78679;BME280;67994;59.334;13.528;2023-04-01T05:18:00;100700.0;;;-4.8;64.5
78679;BME280;67994;59.334;13.528;2023-04-01T05:19:00;100700.0;;;-4.6;63.9
78679;BME280;67994;59.334;13.528;2023-04-01T05:20:01;100700.0;;;-4.5;63.8
78679;BME280;67994;59.334;13.528;2023-04-01T05:21:00;100700.0;;;-4.7;63.7
78679;BME280;67994;59.334;13.528;2023-04-01T05:22:00;100700.0;;;-4.7;63.3
78679;BME280;67994;59.334;13.528;2023-04-01T05:23:00;100700.0;;;-4.5;63.2